createdAt,value
2022-10-05T00:00:02.712Z,93.60
2022-10-05T00:02:34.818Z,93.80
2022-10-05T00:05:28.830Z,93.90
2022-10-05T00:08:24.889Z,93.60
2022-10-05T00:10:56.098Z,93.60
2022-10-05T00:13:32.613Z,93.90
2022-10-05T00:16:37.577Z,93.90
2022-10-05T00:19:17.402Z,93.90
2022-10-05T00:21:48.428Z,93.50
2022-10-05T00:24:22.133Z,93.90
2022-10-05T00:26:57.644Z,94.10
2022-10-05T00:29:29.571Z,94.20
2022-10-05T00:32:01.782Z,94.00
2022-10-05T00:34:37.319Z,94.10
2022-10-05T00:37:08.691Z,93.80
2022-10-05T00:39:42.149Z,93.60
2022-10-05T00:42:34.164Z,93.40
2022-10-05T00:45:35.399Z,93.90
2022-10-05T00:48:30.352Z,93.80
2022-10-05T00:51:21.299Z,93.90
2022-10-05T00:54:18.337Z,93.70
2022-10-05T00:57:13.948Z,94.00
2022-10-05T00:59:59.973Z,93.10
2022-10-05T01:02:37.146Z,92.80
2022-10-05T01:05:26.177Z,93.20
2022-10-05T01:08:18.213Z,93.00
2022-10-05T01:10:55.804Z,93.30
2022-10-05T01:13:44.549Z,93.30
2022-10-05T01:16:51.058Z,92.70
2022-10-05T01:19:52.888Z,92.50
2022-10-05T01:22:36.112Z,92.90
2022-10-05T01:25:16.790Z,92.60
2022-10-05T01:27:50.712Z,93.40
2022-10-05T01:30:25.526Z,93.30
2022-10-05T01:33:18.871Z,93.50
2022-10-05T01:36:05.014Z,93.40
2022-10-05T01:38:53.575Z,93.30
2022-10-05T01:42:08.349Z,93.50
2022-10-05T01:44:55.795Z,93.20
2022-10-05T01:47:26.801Z,93.30
2022-10-05T01:50:06.319Z,93.40
2022-10-05T01:52:52.256Z,93.40
2022-10-05T01:55:31.928Z,93.40
2022-10-05T01:58:13.352Z,93.70
2022-10-05T02:00:54.744Z,93.40
2022-10-05T02:03:35.345Z,93.30
2022-10-05T02:06:17.377Z,93.20
2022-10-05T02:09:15.258Z,93.40
2022-10-05T02:11:55.493Z,93.20
2022-10-05T02:14:35.240Z,93.20
2022-10-05T02:17:15.409Z,93.10
2022-10-05T02:19:54.402Z,93.30
2022-10-05T02:22:50.034Z,93.40
2022-10-05T02:25:37.235Z,93.40
2022-10-05T02:28:40.893Z,93.30
2022-10-05T02:31:58.777Z,93.40
2022-10-05T02:34:38.142Z,93.50
2022-10-05T02:37:51.660Z,93.50
2022-10-05T02:40:55.816Z,93.50
2022-10-05T02:47:29.718Z,93.50
2022-10-05T02:50:10.125Z,93.40
2022-10-05T02:52:59.268Z,93.40
2022-10-05T02:55:41.775Z,93.40
2022-10-05T02:58:28.978Z,93.50
2022-10-05T03:01:10.607Z,93.40
2022-10-05T03:04:18.006Z,93.50
2022-10-05T03:07:27.224Z,93.40
2022-10-05T03:10:16.807Z,93.30
2022-10-05T03:12:58.425Z,93.40
2022-10-05T03:15:30.462Z,93.40
2022-10-05T03:18:39.613Z,93.30
2022-10-05T03:21:31.701Z,93.30
2022-10-05T03:24:19.462Z,93.30
2022-10-05T03:27:11.762Z,93.30
2022-10-05T03:30:19.710Z,93.20
2022-10-05T03:33:01.146Z,93.20
2022-10-05T03:36:17.455Z,93.30
2022-10-05T03:39:30.257Z,93.30
2022-10-05T03:42:20.342Z,93.30
2022-10-05T03:45:21.838Z,93.30
2022-10-05T03:48:27.631Z,93.10
2022-10-05T03:51:18.399Z,93.00
2022-10-05T03:54:23.399Z,93.20
2022-10-05T03:57:05.889Z,93.10
2022-10-05T04:00:06.684Z,93.30
2022-10-05T04:03:28.246Z,93.30
2022-10-05T04:06:22.721Z,93.00
2022-10-05T04:08:53.696Z,93.10
2022-10-05T04:11:37.987Z,93.00
2022-10-05T04:14:40.556Z,93.20
2022-10-05T04:17:18.548Z,93.10
2022-10-05T04:20:12.217Z,93.10
2022-10-05T04:23:10.169Z,93.40
2022-10-05T04:25:58.820Z,93.00
2022-10-05T04:28:53.008Z,93.00
2022-10-05T04:31:52.052Z,93.10
2022-10-05T04:34:44.816Z,93.10
2022-10-05T04:37:46.753Z,93.00
2022-10-05T04:40:25.567Z,93.00
2022-10-05T04:43:15.460Z,92.90
2022-10-05T04:46:20.312Z,93.00
2022-10-05T04:49:37.669Z,92.90
2022-10-05T04:52:12.130Z,93.00
2022-10-05T04:55:04.670Z,92.90
2022-10-05T04:58:03.799Z,92.80
2022-10-05T05:01:36.410Z,93.00
2022-10-05T05:04:16.905Z,92.90
2022-10-05T05:07:18.659Z,92.90
2022-10-05T05:10:09.095Z,92.90
2022-10-05T05:13:14.315Z,92.90
2022-10-05T05:15:57.567Z,92.80
2022-10-05T05:18:55.297Z,92.90
2022-10-05T05:21:30.049Z,92.80
2022-10-05T05:24:28.150Z,92.90
2022-10-05T05:27:17.884Z,92.90
2022-10-05T05:30:16.870Z,92.90
2022-10-05T05:33:32.640Z,92.70
2022-10-05T05:36:33.211Z,92.90
2022-10-05T05:39:21.627Z,92.80
2022-10-05T05:41:59.828Z,92.80
2022-10-05T05:44:40.903Z,92.80
2022-10-05T05:47:27.870Z,92.70
2022-10-05T05:50:10.828Z,92.80
2022-10-05T05:53:17.240Z,92.80
2022-10-05T05:55:53.948Z,92.70
2022-10-05T05:58:36.339Z,93.00
2022-10-05T06:01:32.306Z,92.80
2022-10-05T06:04:40.030Z,92.80
2022-10-05T06:07:19.533Z,92.70
2022-10-05T06:10:05.292Z,92.70
2022-10-05T06:12:51.085Z,92.70
2022-10-05T06:15:22.458Z,92.80
2022-10-05T06:18:22.361Z,92.80
2022-10-05T06:21:18.709Z,92.80
2022-10-05T06:24:28.194Z,92.60
2022-10-05T06:27:21.124Z,92.60
2022-10-05T06:30:15.875Z,92.60
2022-10-05T06:32:54.062Z,92.50
2022-10-05T06:35:27.098Z,92.60
2022-10-05T06:38:07.299Z,92.50
2022-10-05T06:41:03.879Z,92.50
2022-10-05T06:43:56.158Z,92.70
2022-10-05T06:46:54.170Z,92.50
2022-10-05T06:49:45.642Z,92.60
2022-10-05T06:53:00.714Z,92.50
2022-10-05T06:55:57.258Z,92.60
2022-10-05T06:58:29.446Z,92.60
2022-10-05T07:01:33.873Z,92.70
2022-10-05T07:04:22.822Z,92.60
2022-10-05T07:07:22.579Z,92.50
2022-10-05T07:10:13.542Z,92.50
2022-10-05T07:13:02.866Z,92.50
2022-10-05T07:15:43.410Z,92.40
2022-10-05T07:18:16.012Z,92.50
2022-10-05T07:20:56.381Z,92.60
2022-10-05T07:23:49.041Z,92.50
2022-10-05T07:26:24.278Z,92.40
2022-10-05T07:29:01.808Z,92.70
2022-10-05T07:31:48.250Z,92.50
2022-10-05T07:34:36.880Z,92.60
2022-10-05T07:37:32.937Z,92.40
2022-10-05T07:40:46.813Z,92.50
2022-10-05T07:44:03.419Z,92.40
2022-10-05T07:46:58.255Z,92.50
2022-10-05T07:52:49.741Z,92.60
2022-10-05T07:55:27.353Z,92.40
2022-10-05T07:58:36.681Z,92.40
2022-10-05T08:01:24.757Z,92.40
2022-10-05T08:04:02.830Z,92.70
2022-10-05T08:06:57.895Z,92.50
2022-10-05T08:09:36.081Z,92.40
2022-10-05T08:12:12.728Z,92.40
2022-10-05T08:15:21.857Z,92.30
2022-10-05T08:18:05.823Z,92.30
2022-10-05T08:21:14.291Z,92.40
2022-10-05T08:24:30.426Z,92.30
2022-10-05T08:27:40.991Z,92.40
2022-10-05T08:30:34.129Z,92.40
2022-10-05T08:33:17.881Z,92.50
2022-10-05T08:39:00.704Z,92.40
2022-10-05T08:41:57.784Z,92.40
2022-10-05T08:45:14.723Z,92.40
2022-10-05T08:48:39.929Z,92.30
2022-10-05T08:51:22.673Z,92.30
2022-10-05T08:54:06.275Z,92.30
2022-10-05T08:57:04.151Z,92.40
2022-10-05T09:00:02.206Z,92.30
2022-10-05T09:03:04.040Z,92.30
2022-10-05T09:06:06.089Z,92.30
2022-10-05T09:08:57.838Z,92.30
2022-10-05T09:11:36.512Z,92.30
2022-10-05T09:14:22.168Z,92.40
2022-10-05T09:16:53.334Z,92.40
2022-10-05T09:19:53.197Z,92.50
2022-10-05T09:22:42.539Z,92.50
2022-10-05T09:25:21.977Z,92.50
2022-10-05T09:28:00.759Z,92.60
2022-10-05T09:30:50.832Z,92.50
2022-10-05T09:33:53.474Z,92.80
2022-10-05T09:36:33.691Z,92.70
2022-10-05T09:39:10.304Z,92.70
2022-10-05T09:41:58.443Z,92.60
2022-10-05T09:44:51.031Z,92.50
2022-10-05T09:47:40.344Z,93.00
2022-10-05T09:50:37.092Z,92.90
2022-10-05T09:53:20.451Z,93.00
2022-10-05T09:56:22.872Z,93.30
2022-10-05T09:59:20.311Z,93.40
2022-10-05T10:01:57.479Z,93.50
2022-10-05T10:04:35.726Z,93.70
2022-10-05T10:07:45.082Z,93.70
2022-10-05T10:10:50.709Z,93.70
2022-10-05T10:14:01.342Z,93.70
2022-10-05T10:16:51.103Z,93.60
2022-10-05T10:19:33.796Z,93.60
2022-10-05T10:22:22.913Z,93.70
2022-10-05T10:25:07.595Z,93.60
2022-10-05T10:27:52.336Z,93.70
2022-10-05T10:31:09.278Z,93.70
2022-10-05T10:34:12.506Z,93.80
2022-10-05T10:36:57.952Z,93.70
2022-10-05T10:40:03.136Z,93.70
2022-10-05T10:42:45.021Z,93.70
2022-10-05T10:45:21.940Z,93.70
2022-10-05T10:47:53.465Z,94.00
2022-10-05T10:51:03.584Z,94.20
2022-10-05T10:53:55.606Z,93.70
2022-10-05T10:56:49.038Z,93.70
2022-10-05T11:00:01.391Z,93.80
2022-10-05T11:05:58.746Z,93.80
2022-10-05T11:09:03.169Z,93.80
2022-10-05T11:11:38.219Z,93.80
2022-10-05T11:14:09.088Z,93.80
2022-10-05T11:17:16.820Z,93.80
2022-10-05T11:20:05.814Z,94.20
2022-10-05T11:22:53.163Z,93.90
2022-10-05T11:25:52.331Z,94.20
2022-10-05T11:28:37.060Z,93.80
2022-10-05T11:31:32.548Z,93.90
2022-10-05T11:34:12.685Z,93.90
2022-10-05T11:37:04.497Z,93.90
2022-10-05T11:39:46.551Z,93.90
2022-10-05T11:42:41.884Z,93.90
2022-10-05T11:45:24.264Z,93.90
2022-10-05T11:48:01.099Z,94.00
2022-10-05T11:51:00.544Z,94.30
2022-10-05T11:53:45.027Z,93.90
2022-10-05T11:56:49.485Z,93.90
2022-10-05T11:59:42.339Z,94.00
2022-10-05T12:02:34.443Z,94.00
2022-10-05T12:05:45.150Z,94.00
2022-10-05T12:08:42.004Z,94.00
2022-10-05T12:11:33.818Z,94.00
2022-10-05T12:14:13.154Z,94.00
2022-10-05T12:17:00.626Z,94.10
2022-10-05T12:20:04.547Z,94.10
2022-10-05T12:23:09.427Z,94.10
2022-10-05T12:26:05.353Z,94.10
2022-10-05T12:28:48.934Z,94.10
2022-10-05T12:31:31.273Z,94.10
2022-10-05T12:34:31.318Z,94.10
2022-10-05T12:37:29.332Z,94.10
2022-10-05T12:40:23.294Z,94.20
2022-10-05T12:42:58.891Z,94.20
2022-10-05T12:45:53.885Z,94.20
2022-10-05T12:48:25.021Z,94.10
2022-10-05T12:51:16.019Z,94.20
2022-10-05T12:54:08.405Z,94.20
2022-10-05T12:57:05.768Z,94.20
2022-10-05T12:59:49.283Z,94.30
2022-10-05T13:02:46.049Z,94.30
2022-10-05T13:05:24.468Z,94.20
2022-10-05T13:08:16.361Z,94.30
2022-10-05T13:11:19.887Z,94.40
2022-10-05T13:14:34.012Z,94.30
2022-10-05T13:17:13.047Z,94.40
2022-10-05T13:20:00.801Z,94.30
2022-10-05T13:22:45.989Z,94.30
2022-10-05T13:25:20.342Z,94.40
2022-10-05T13:28:03.850Z,94.40
2022-10-05T13:31:06.574Z,94.40
2022-10-05T13:33:49.942Z,94.40
2022-10-05T13:36:46.883Z,94.40
2022-10-05T13:39:42.549Z,94.50
2022-10-05T13:42:35.308Z,94.50
2022-10-05T13:45:21.651Z,94.50
2022-10-05T13:48:27.460Z,94.50
2022-10-05T13:51:20.296Z,94.50
2022-10-05T13:54:08.103Z,94.60
2022-10-05T13:57:14.209Z,94.60
2022-10-05T14:00:24.246Z,94.60
2022-10-05T14:03:02.476Z,94.60
2022-10-05T14:05:34.675Z,94.60
2022-10-05T14:08:07.126Z,94.60
2022-10-05T14:10:47.523Z,94.60
2022-10-05T14:13:48.091Z,94.70
2022-10-05T14:16:25.687Z,94.90
2022-10-05T14:19:20.754Z,94.80
2022-10-05T14:22:10.262Z,95.50
2022-10-05T14:25:05.169Z,95.20
2022-10-05T14:27:50.871Z,95.50
2022-10-05T14:30:25.767Z,95.00
2022-10-05T14:33:12.614Z,95.50
2022-10-05T14:35:52.713Z,95.10
2022-10-05T14:38:46.735Z,95.10
2022-10-05T14:41:23.442Z,95.40
2022-10-05T14:44:11.863Z,95.40
2022-10-05T14:46:57.209Z,95.30
2022-10-05T14:49:37.487Z,95.40
2022-10-05T14:53:02.159Z,95.70
2022-10-05T14:55:50.209Z,95.30
2022-10-05T14:58:43.393Z,95.90
2022-10-05T15:01:29.221Z,95.40
2022-10-05T15:05:04.544Z,95.50
2022-10-05T15:07:43.276Z,95.50
2022-10-05T15:10:54.096Z,95.40
2022-10-05T15:13:30.035Z,95.50
2022-10-05T15:16:35.200Z,95.50
2022-10-05T15:19:26.815Z,95.60
2022-10-05T15:22:24.920Z,97.10
2022-10-05T15:25:19.674Z,96.50
2022-10-05T15:28:27.657Z,96.40
2022-10-05T15:31:19.145Z,95.70
2022-10-05T15:34:18.808Z,95.50
2022-10-05T15:37:09.472Z,94.60
2022-10-05T15:39:54.778Z,94.50
2022-10-05T15:42:36.288Z,94.10
2022-10-05T15:45:43.528Z,94.70
2022-10-05T15:48:26.944Z,94.70
2022-10-05T15:51:08.454Z,93.90
2022-10-05T15:54:31.548Z,93.50
2022-10-05T15:57:14.044Z,93.90
2022-10-05T16:00:05.904Z,92.90
2022-10-05T16:03:02.345Z,93.80
2022-10-05T16:06:12.951Z,94.10
2022-10-05T16:08:52.675Z,94.10
2022-10-05T16:11:42.042Z,94.40
2022-10-05T16:14:23.812Z,93.50
2022-10-05T16:17:09.284Z,92.90
2022-10-05T16:20:08.204Z,93.80
2022-10-05T16:23:06.309Z,93.00
2022-10-05T16:26:10.695Z,93.50
2022-10-05T16:29:11.882Z,92.50
2022-10-05T16:32:18.073Z,93.70
2022-10-05T16:35:27.581Z,93.70
2022-10-05T16:38:26.520Z,92.50
2022-10-05T16:41:34.992Z,92.30
2022-10-05T16:44:39.263Z,92.10
2022-10-05T16:47:43.435Z,92.90
2022-10-05T16:50:23.644Z,91.90
2022-10-05T16:53:32.465Z,92.20
2022-10-05T16:56:26.968Z,92.30
2022-10-05T16:59:05.590Z,93.60
2022-10-05T17:01:50.961Z,93.20
2022-10-05T17:04:51.010Z,93.70
2022-10-05T17:07:56.665Z,93.50
2022-10-05T17:10:38.217Z,92.60
2022-10-05T17:13:38.050Z,93.70
2022-10-05T17:16:28.058Z,92.20
2022-10-05T17:19:22.727Z,92.10
2022-10-05T17:22:02.301Z,92.40
2022-10-05T17:24:51.345Z,92.10
2022-10-05T17:27:51.297Z,93.50
2022-10-05T17:30:25.280Z,92.20
2022-10-05T17:33:26.185Z,92.10
2022-10-05T17:36:13.533Z,94.00
2022-10-05T17:38:47.415Z,92.50
2022-10-05T17:41:21.469Z,92.50
2022-10-05T17:44:20.676Z,93.70
2022-10-05T17:47:04.150Z,93.40
2022-10-05T17:49:43.365Z,92.70
2022-10-05T17:52:49.955Z,92.20
2022-10-05T17:55:31.165Z,93.60
2022-10-05T17:58:30.911Z,91.90
2022-10-05T18:01:02.205Z,92.30
2022-10-05T18:03:40.135Z,93.90
2022-10-05T18:06:29.788Z,94.10
2022-10-05T18:09:21.590Z,93.40
2022-10-05T18:12:19.685Z,93.60
2022-10-05T18:15:10.117Z,93.90
2022-10-05T18:17:47.492Z,93.90
2022-10-05T18:20:29.997Z,93.30
2022-10-05T18:23:07.494Z,91.90
2022-10-05T18:25:52.470Z,94.00
2022-10-05T18:28:26.496Z,93.70
2022-10-05T18:31:17.004Z,93.90
2022-10-05T18:33:56.548Z,91.60
2022-10-05T18:36:50.629Z,94.00
2022-10-05T18:39:48.667Z,93.90
2022-10-05T18:43:02.016Z,93.80
2022-10-05T18:45:51.271Z,93.90
2022-10-05T18:48:58.923Z,93.80
2022-10-05T18:51:52.240Z,93.60
2022-10-05T18:54:47.836Z,92.50
2022-10-05T18:57:34.250Z,92.30
2022-10-05T19:00:17.446Z,92.30
2022-10-05T19:02:53.887Z,92.90
2022-10-05T19:05:49.370Z,94.10
2022-10-05T19:08:43.580Z,94.00
2022-10-05T19:11:24.557Z,93.80
2022-10-05T19:14:13.237Z,92.20
2022-10-05T19:17:02.391Z,93.90
2022-10-05T19:19:50.415Z,93.90
2022-10-05T19:22:43.576Z,91.50
2022-10-05T19:25:32.941Z,93.60
2022-10-05T19:28:16.772Z,93.80
2022-10-05T19:30:52.639Z,93.90
2022-10-05T19:33:49.315Z,93.70
2022-10-05T19:36:41.615Z,92.00
2022-10-05T19:39:33.549Z,93.00
2022-10-05T19:42:32.171Z,91.60
2022-10-05T19:45:31.490Z,93.90
2022-10-05T19:48:17.146Z,92.70
2022-10-05T19:51:02.141Z,93.70
2022-10-05T19:53:39.280Z,92.00
2022-10-05T19:56:32.416Z,94.10
2022-10-05T19:59:21.804Z,92.00
2022-10-05T20:01:55.322Z,92.10
2022-10-05T20:04:44.626Z,94.00
2022-10-05T20:07:24.766Z,93.00
2022-10-05T20:09:59.367Z,92.90
2022-10-05T20:12:53.629Z,93.90
2022-10-05T20:15:56.567Z,93.20
2022-10-05T20:19:08.488Z,93.70
2022-10-05T20:21:48.587Z,93.70
2022-10-05T20:24:28.167Z,93.80
2022-10-05T20:27:09.546Z,92.10
2022-10-05T20:29:43.871Z,92.10
2022-10-05T20:32:19.229Z,92.60
2022-10-05T20:34:52.055Z,92.30
2022-10-05T20:37:23.016Z,94.00
2022-10-05T20:40:14.367Z,93.70
2022-10-05T20:42:45.597Z,93.70
2022-10-05T20:45:17.171Z,91.70
2022-10-05T20:47:48.600Z,92.90
2022-10-05T20:50:20.025Z,94.10
2022-10-05T20:52:51.208Z,93.00
2022-10-05T20:55:22.243Z,94.00
2022-10-05T20:58:12.982Z,93.40
2022-10-05T21:01:02.149Z,91.20
2022-10-05T21:03:33.048Z,93.10
2022-10-05T21:06:03.909Z,93.20
2022-10-05T21:08:35.767Z,93.40
2022-10-05T21:11:12.848Z,93.50
2022-10-05T21:13:46.598Z,93.50
2022-10-05T21:16:19.776Z,94.20
2022-10-05T21:18:51.500Z,94.10
2022-10-05T21:21:22.710Z,93.30
2022-10-05T21:23:53.740Z,94.10
2022-10-05T21:26:24.833Z,93.80
2022-10-05T21:28:55.981Z,94.50
2022-10-05T21:31:50.642Z,93.40
2022-10-05T21:34:21.506Z,94.40
2022-10-05T21:36:52.421Z,93.30
2022-10-05T21:39:23.371Z,94.60
2022-10-05T21:42:15.202Z,94.30
2022-10-05T21:44:46.077Z,94.00
2022-10-05T21:47:17.108Z,94.50
2022-10-05T21:49:48.023Z,94.80
2022-10-05T21:52:18.976Z,93.60
2022-10-05T21:55:11.475Z,93.70
2022-10-05T21:58:03.182Z,93.90
2022-10-05T22:00:34.312Z,94.60
2022-10-05T22:03:05.701Z,93.70
2022-10-05T22:05:36.955Z,93.60
2022-10-05T22:08:08.429Z,93.40
2022-10-05T22:10:39.447Z,93.90
2022-10-05T22:13:13.278Z,93.60
2022-10-05T22:15:45.243Z,94.30
2022-10-05T22:18:19.959Z,93.80
2022-10-05T22:20:51.338Z,94.00
2022-10-05T22:23:22.920Z,93.50
2022-10-05T22:25:55.040Z,94.00
2022-10-05T22:28:26.260Z,93.70
2022-10-05T22:31:17.453Z,93.60
2022-10-05T22:33:48.341Z,93.60
2022-10-05T22:36:19.541Z,94.10
2022-10-05T22:38:50.484Z,93.20
2022-10-05T22:41:21.791Z,92.80
2022-10-05T22:43:53.407Z,94.30
2022-10-05T22:46:25.727Z,93.60
2022-10-05T22:49:17.498Z,94.40
2022-10-05T22:52:13.597Z,94.30
2022-10-05T22:54:44.540Z,93.90
2022-10-05T22:57:15.580Z,93.20
2022-10-05T22:59:46.631Z,94.20
2022-10-05T23:02:19.230Z,94.10
2022-10-05T23:04:50.022Z,93.80
2022-10-05T23:07:21.085Z,93.70
2022-10-05T23:09:52.129Z,93.80
2022-10-05T23:12:22.965Z,93.70
2022-10-05T23:14:54.011Z,93.60
2022-10-05T23:17:25.272Z,93.70
2022-10-05T23:19:59.234Z,93.60
2022-10-05T23:22:30.325Z,94.10
2022-10-05T23:25:01.345Z,93.80
2022-10-05T23:27:38.895Z,93.50
2022-10-05T23:30:11.697Z,93.40
2022-10-05T23:32:44.378Z,93.80
2022-10-05T23:35:16.270Z,93.60
2022-10-05T23:37:57.771Z,94.20
2022-10-05T23:40:49.029Z,94.40
2022-10-05T23:43:19.958Z,94.20
2022-10-05T23:46:10.824Z,93.70
2022-10-05T23:48:41.855Z,93.60
2022-10-05T23:51:14.781Z,94.10
2022-10-05T23:53:46.937Z,92.80
2022-10-05T23:56:19.246Z,94.50
2022-10-05T23:58:50.162Z,93.40
